首页
METAR-TAF:

METAR-TAF

机场 :

Bathurst, 新不倫瑞克, 加拿大

纬度: 47-38N, 经度: 065-45W, 海拔: 59米

当前天气观测

该预报发布于27分钟前的17:00 UTC
风速4节,风向,在东北东南之间变化
温度 19°C
湿度 73%
气压 1003 hPa
能見度: 14.5公里
少量云层高于2000英尺
多云层高于3600英尺

METAR: CZBF 241700Z AUTO 09004KT 050V140 9SM FEW020 BKN036 19/14 A2961 RMK SLP029 DENSITY ALT 1200FT

时间: 14:27 (17:27 UTC)

预报

该预报发布于3小时和43分钟前的13:44 UTC
预报有效从24日的 14点(UTC)到 25日的 02点(UTC)
风速5节,风向北转东北
能見度: 10公里
多云层高于2000英尺
阴天层高于9000英尺
短暂存在
从 24日的 14点(UTC)到 24日的 16点(UTC)
能見度: 6.4公里
阴天层高于800英尺
小雨, 轻雾
从 24日的 1600点(UTC)
风速3节,风向多变
能見度: 10公里
散云层高于1500英尺
多云层高于9000英尺
成为
从 24日的 16点(UTC)到 24日的 18点(UTC)
多云层高于12000英尺
成为
从 24日的 23点(UTC)到 25日的 01点(UTC)
散云层高于20000英尺

TAF: CZBF 241344Z 2414/2502 02005KT P6SM BKN020 OVC090 TEMPO 2414/2416 4SM -RA BR OVC008 FM241600 VRB03KT P6SM SCT015 BKN090 BECMG 2416/2418 BKN120 BECMG 2423/2501 SCT200 RMK FCST BASED ON AUTO OBS. NXT FCST BY 242000Z

超过4000个机场的气象观测和天气预报(METAR&TAF报告)。

可查询的气象台以黄色和红色小点在地图上表示。

将鼠标移到小点上方,可查看气象台名称。

然后点击查看天气观测和预报。

如需切换地图:点击带黑十字的绿色按钮放大地图;点击带横线的绿色按钮缩小地图;或者点击绿色箭头查看邻近地区的地图。


METAR-TAF: